Ali S — ER2669 — position and weather

sailwx.info

Track history (hours):
 
Tides and Currents Weather Stations Pressure Air Temp Water Temp Dewpoint Dewpoint Depression Visibility Wind Speed Wind Dir Waves Ship Positions

Ali S

Last reported at 2018-Apr-24 01:33 UTC. Time now 2018-Apr-25 16:27 UTC.
Position N 42°03' E 030°30'.

Length 111 m; draft 7.1 m.

Type: Cargo ship. MMSI: 214182669.

Date/timePositionNaut miles runAvg speedWind from/ knotsBaromVisibWave heightAir tempDewpointWater temp
2018-Apr-24 01:33N 42°03' E 030°30'0 9.9
2018-Apr-24 01:30N 42°04' E 030°30'5 9.9
2018-Apr-24 01:00N 42°06' E 030°36'5 9.9
2018-Apr-24 00:30N 42°09' E 030°41'910.0
2018-Apr-23 23:35N 42°14' E 030°52'110.1
2018-Apr-23 23:30N 42°14' E 030°53'810.2
2018-Apr-23 22:43N 42°18' E 031°02'210.3
2018-Apr-23 22:30N 42°19' E 031°05'510.4
2018-Apr-23 22:00N 42°22' E 031°11'1310.5
2018-Apr-23 20:45N 42°29' E 031°26'1510.5
2018-Apr-23 19:20N 42°37' E 031°43'410.5
2018-Apr-23 18:58N 42°39' E 031°48'510.3
2018-Apr-23 18:28N 42°41' E 031°54'247 9.5
2018-Apr-22 16:30N 45°08' E 036°30'3 4.7
2018-Apr-22 15:57N 45°10' E 036°31'0 0.3
2018-Apr-22 15:30N 45°10' E 036°31'0 0.0
2018-Apr-22 14:15N 45°10' E 036°31'1 0.1
2018-Apr-22 00:00N 45°11' E 036°30'4 7.9
2018-Apr-21 23:28N 45°14' E 036°28'6 7.5
2018-Apr-21 22:42N 45°19' E 036°32'2 8.7
2018-Apr-21 22:30N 45°20' E 036°35'4 8.2
2018-Apr-21 22:00N 45°22' E 036°40'4 8.4
2018-Apr-21 21:30N 45°26' E 036°41'4 8.1
2018-Apr-21 21:00N 45°30' E 036°39'5 9.1
2018-Apr-21 20:27N 45°35' E 036°39'5 9.2
2018-Apr-21 19:55N 45°40' E 036°40'  
2018-Apr-18 18:04N 45°39' E 036°46'1 8.9
2018-Apr-18 17:59N 45°39' E 036°46'5 8.9
2018-Apr-18 17:27N 45°34' E 036°45'7 9.7
2018-Apr-18 16:46N 45°28' E 036°42'2 8.7
2018-Apr-18 16:30N 45°25' E 036°41'4 7.3
2018-Apr-18 16:00N 45°22' E 036°40'510.5
2018-Apr-18 15:30N 45°19' E 036°33'5 9.8
2018-Apr-18 15:00N 45°16' E 036°27'4 8.5
2018-Apr-18 14:30N 45°12' E 036°28'3 6.1
2018-Apr-18 14:00N 45°09' E 036°29'4 7.1
2018-Apr-18 13:30N 45°06' E 036°30'4 8.8
2018-Apr-18 13:00N 45°01' E 036°31'611.5
2018-Apr-18 12:30N 44°56' E 036°32'611.4
2018-Apr-18 12:00N 44°50' E 036°31'  
Track history (hours):
 
Tides and Currents Weather Stations Pressure Air Temp Water Temp Dewpoint Dewpoint Depression Visibility Wind Speed Wind Dir Waves Ship Positions

Ali S

Last reported at 2018-Apr-24 01:33 UTC. Time now 2018-Apr-25 16:27 UTC.
Position N 42°03' E 030°30'.

Length 111 m; draft 7.1 m.

Type: Cargo ship. MMSI: 214182669.

Date/timePositionNaut miles runAvg speedWind from/ knotsBaromVisibWave heightAir tempDewpointWater temp
2018-Apr-24 01:33N 42°03' E 030°30'0 9.9
2018-Apr-24 01:30N 42°04' E 030°30'5 9.9
2018-Apr-24 01:00N 42°06' E 030°36'5 9.9
2018-Apr-24 00:30N 42°09' E 030°41'910.0
2018-Apr-23 23:35N 42°14' E 030°52'110.1
2018-Apr-23 23:30N 42°14' E 030°53'810.2
2018-Apr-23 22:43N 42°18' E 031°02'210.3
2018-Apr-23 22:30N 42°19' E 031°05'510.4
2018-Apr-23 22:00N 42°22' E 031°11'1310.5
2018-Apr-23 20:45N 42°29' E 031°26'1510.5
2018-Apr-23 19:20N 42°37' E 031°43'410.5
2018-Apr-23 18:58N 42°39' E 031°48'510.3
2018-Apr-23 18:28N 42°41' E 031°54'247 9.5
2018-Apr-22 16:30N 45°08' E 036°30'3 4.7
2018-Apr-22 15:57N 45°10' E 036°31'0 0.3
2018-Apr-22 15:30N 45°10' E 036°31'0 0.0
2018-Apr-22 14:15N 45°10' E 036°31'1 0.1
2018-Apr-22 00:00N 45°11' E 036°30'4 7.9
2018-Apr-21 23:28N 45°14' E 036°28'6 7.5
2018-Apr-21 22:42N 45°19' E 036°32'2 8.7
2018-Apr-21 22:30N 45°20' E 036°35'4 8.2
2018-Apr-21 22:00N 45°22' E 036°40'4 8.4
2018-Apr-21 21:30N 45°26' E 036°41'4 8.1
2018-Apr-21 21:00N 45°30' E 036°39'5 9.1
2018-Apr-21 20:27N 45°35' E 036°39'5 9.2
2018-Apr-21 19:55N 45°40' E 036°40'  
2018-Apr-18 18:04N 45°39' E 036°46'1 8.9
2018-Apr-18 17:59N 45°39' E 036°46'5 8.9
2018-Apr-18 17:27N 45°34' E 036°45'7 9.7
2018-Apr-18 16:46N 45°28' E 036°42'2 8.7
2018-Apr-18 16:30N 45°25' E 036°41'4 7.3
2018-Apr-18 16:00N 45°22' E 036°40'510.5
2018-Apr-18 15:30N 45°19' E 036°33'5 9.8
2018-Apr-18 15:00N 45°16' E 036°27'4 8.5
2018-Apr-18 14:30N 45°12' E 036°28'3 6.1
2018-Apr-18 14:00N 45°09' E 036°29'4 7.1
2018-Apr-18 13:30N 45°06' E 036°30'4 8.8
2018-Apr-18 13:00N 45°01' E 036°31'611.5
2018-Apr-18 12:30N 44°56' E 036°32'611.4
2018-Apr-18 12:00N 44°50' E 036°31'  

Dump ship's entire track history